sensor_id;sensor_type;location;lat;lon;timestamp;temperature;humidity
69731;SHT31;56996;48.138;11.538;2023-02-28T00:01:30;-1.14;64.50
69731;SHT31;56996;48.138;11.538;2023-02-28T00:03:58;-1.16;64.48
69731;SHT31;56996;48.138;11.538;2023-02-28T00:06:25;-1.17;64.53
69731;SHT31;56996;48.138;11.538;2023-02-28T00:08:52;-1.18;64.66
69731;SHT31;56996;48.138;11.538;2023-02-28T00:11:19;-1.21;64.79
69731;SHT31;56996;48.138;11.538;2023-02-28T00:13:46;-1.22;64.88
69731;SHT31;56996;48.138;11.538;2023-02-28T00:16:15;-1.22;64.94
69731;SHT31;56996;48.138;11.538;2023-02-28T00:18:45;-1.23;65.05
69731;SHT31;56996;48.138;11.538;2023-02-28T00:21:14;-1.25;65.00
69731;SHT31;56996;48.138;11.538;2023-02-28T00:23:42;-1.27;65.06
69731;SHT31;56996;48.138;11.538;2023-02-28T00:26:09;-1.29;65.16
69731;SHT31;56996;48.138;11.538;2023-02-28T00:28:36;-1.29;65.27
69731;SHT31;56996;48.138;11.538;2023-02-28T00:31:03;-1.29;65.31
69731;SHT31;56996;48.138;11.538;2023-02-28T00:33:30;-1.31;65.30
69731;SHT31;56996;48.138;11.538;2023-02-28T00:36:03;-1.29;65.32
69731;SHT31;56996;48.138;11.538;2023-02-28T00:38:35;-1.31;65.39
69731;SHT31;56996;48.138;11.538;2023-02-28T00:41:03;-1.34;65.31
69731;SHT31;56996;48.138;11.538;2023-02-28T00:43:35;-1.38;65.45
69731;SHT31;56996;48.138;11.538;2023-02-28T00:46:04;-1.40;65.55
69731;SHT31;56996;48.138;11.538;2023-02-28T00:48:32;-1.41;65.56
69731;SHT31;56996;48.138;11.538;2023-02-28T00:50:59;-1.39;65.54
69731;SHT31;56996;48.138;11.538;2023-02-28T00:53:27;-1.41;65.61
69731;SHT31;56996;48.138;11.538;2023-02-28T00:55:56;-1.44;65.70
69731;SHT31;56996;48.138;11.538;2023-02-28T00:58:22;-1.43;65.74
69731;SHT31;56996;48.138;11.538;2023-02-28T01:00:51;-1.42;65.78
69731;SHT31;56996;48.138;11.538;2023-02-28T01:03:20;-1.43;65.82
69731;SHT31;56996;48.138;11.538;2023-02-28T01:05:48;-1.43;65.78
69731;SHT31;56996;48.138;11.538;2023-02-28T01:08:15;-1.45;65.78
69731;SHT31;56996;48.138;11.538;2023-02-28T01:10:42;-1.48;65.86
69731;SHT31;56996;48.138;11.538;2023-02-28T01:13:09;-1.51;66.01
69731;SHT31;56996;48.138;11.538;2023-02-28T01:15:37;-1.52;66.02
69731;SHT31;56996;48.138;11.538;2023-02-28T01:18:10;-1.50;66.11
69731;SHT31;56996;48.138;11.538;2023-02-28T01:20:38;-1.51;66.20
69731;SHT31;56996;48.138;11.538;2023-02-28T01:23:04;-1.52;66.20
69731;SHT31;56996;48.138;11.538;2023-02-28T01:25:36;-1.54;66.37
69731;SHT31;56996;48.138;11.538;2023-02-28T01:28:03;-1.53;66.46
69731;SHT31;56996;48.138;11.538;2023-02-28T01:30:32;-1.55;66.38
69731;SHT31;56996;48.138;11.538;2023-02-28T01:32:59;-1.56;66.40
69731;SHT31;56996;48.138;11.538;2023-02-28T01:35:26;-1.56;66.48
69731;SHT31;56996;48.138;11.538;2023-02-28T01:37:53;-1.59;66.43
69731;SHT31;56996;48.138;11.538;2023-02-28T01:40:20;-1.61;66.50
69731;SHT31;56996;48.138;11.538;2023-02-28T01:42:47;-1.63;66.52
69731;SHT31;56996;48.138;11.538;2023-02-28T01:47:58;-1.68;66.80
69731;SHT31;56996;48.138;11.538;2023-02-28T01:50:32;-1.70;66.79
69731;SHT31;56996;48.138;11.538;2023-02-28T01:53:06;-1.71;66.82
69731;SHT31;56996;48.138;11.538;2023-02-28T01:55:40;-1.69;67.01
69731;SHT31;56996;48.138;11.538;2023-02-28T01:58:13;-1.71;67.04
69731;SHT31;56996;48.138;11.538;2023-02-28T02:00:41;-1.72;67.10
69731;SHT31;56996;48.138;11.538;2023-02-28T02:03:09;-1.75;67.24
69731;SHT31;56996;48.138;11.538;2023-02-28T02:05:42;-1.78;67.32
69731;SHT31;56996;48.138;11.538;2023-02-28T02:08:15;-1.80;67.35
69731;SHT31;56996;48.138;11.538;2023-02-28T02:10:48;-1.81;67.41
69731;SHT31;56996;48.138;11.538;2023-02-28T02:25:58;-1.90;67.92
69731;SHT31;56996;48.138;11.538;2023-02-28T02:28:34;-1.90;67.82
69731;SHT31;56996;48.138;11.538;2023-02-28T02:34:26;-1.93;67.98
69731;SHT31;56996;48.138;11.538;2023-02-28T02:37:13;-1.96;68.10
69731;SHT31;56996;48.138;11.538;2023-02-28T02:39:53;-1.98;68.19
69731;SHT31;56996;48.138;11.538;2023-02-28T02:45:25;-2.02;68.36
69731;SHT31;56996;48.138;11.538;2023-02-28T02:48:06;-2.03;68.50
69731;SHT31;56996;48.138;11.538;2023-02-28T02:50:41;-2.04;68.55
69731;SHT31;56996;48.138;11.538;2023-02-28T02:53:12;-2.05;68.50
69731;SHT31;56996;48.138;11.538;2023-02-28T02:55:43;-2.07;68.60
69731;SHT31;56996;48.138;11.538;2023-02-28T02:58:14;-2.07;68.69
69731;SHT31;56996;48.138;11.538;2023-02-28T03:00:46;-2.10;68.75
69731;SHT31;56996;48.138;11.538;2023-02-28T03:03:19;-2.09;69.03
69731;SHT31;56996;48.138;11.538;2023-02-28T03:05:59;-2.11;68.90
69731;SHT31;56996;48.138;11.538;2023-02-28T03:08:27;-2.11;69.05
69731;SHT31;56996;48.138;11.538;2023-02-28T03:10:58;-2.11;69.02
69731;SHT31;56996;48.138;11.538;2023-02-28T03:25:13;-2.08;69.55
69731;SHT31;56996;48.138;11.538;2023-02-28T03:33:15;-2.08;69.54
69731;SHT31;56996;48.138;11.538;2023-02-28T03:35:57;-2.08;69.63
69731;SHT31;56996;48.138;11.538;2023-02-28T03:38:34;-2.10;69.77
69731;SHT31;56996;48.138;11.538;2023-02-28T03:41:24;-2.13;69.97
69731;SHT31;56996;48.138;11.538;2023-02-28T03:43:59;-2.15;70.05
69731;SHT31;56996;48.138;11.538;2023-02-28T03:50:17;-2.18;70.62
69731;SHT31;56996;48.138;11.538;2023-02-28T03:52:53;-2.21;70.79
69731;SHT31;56996;48.138;11.538;2023-02-28T03:55:28;-2.23;70.81
69731;SHT31;56996;48.138;11.538;2023-02-28T03:58:14;-2.22;70.88
69731;SHT31;56996;48.138;11.538;2023-02-28T04:00:49;-2.22;71.18
69731;SHT31;56996;48.138;11.538;2023-02-28T04:03:37;-2.21;71.01
69731;SHT31;56996;48.138;11.538;2023-02-28T04:06:05;-2.21;71.10
69731;SHT31;56996;48.138;11.538;2023-02-28T04:08:40;-2.19;71.09
69731;SHT31;56996;48.138;11.538;2023-02-28T04:11:08;-2.21;71.37
69731;SHT31;56996;48.138;11.538;2023-02-28T04:13:50;-2.24;71.46
69731;SHT31;56996;48.138;11.538;2023-02-28T04:16:17;-2.23;71.73
69731;SHT31;56996;48.138;11.538;2023-02-28T04:19:00;-2.20;71.52
69731;SHT31;56996;48.138;11.538;2023-02-28T04:21:32;-2.18;71.47
69731;SHT31;56996;48.138;11.538;2023-02-28T04:24:06;-2.15;71.66
69731;SHT31;56996;48.138;11.538;2023-02-28T04:26:35;-2.12;71.67
69731;SHT31;56996;48.138;11.538;2023-02-28T04:29:04;-2.09;71.69
69731;SHT31;56996;48.138;11.538;2023-02-28T04:31:32;-2.08;71.85
69731;SHT31;56996;48.138;11.538;2023-02-28T04:34:00;-2.08;72.05
69731;SHT31;56996;48.138;11.538;2023-02-28T04:36:27;-2.03;71.77
69731;SHT31;56996;48.138;11.538;2023-02-28T04:38:54;-1.98;71.71
69731;SHT31;56996;48.138;11.538;2023-02-28T04:41:21;-1.94;71.71
69731;SHT31;56996;48.138;11.538;2023-02-28T04:43:49;-1.92;71.76
69731;SHT31;56996;48.138;11.538;2023-02-28T04:46:18;-1.92;71.73
69731;SHT31;56996;48.138;11.538;2023-02-28T04:48:46;-1.89;71.88
69731;SHT31;56996;48.138;11.538;2023-02-28T04:51:13;-1.87;71.91
69731;SHT31;56996;48.138;11.538;2023-02-28T04:53:42;-1.85;71.84
69731;SHT31;56996;48.138;11.538;2023-02-28T04:56:11;-1.81;71.92
69731;SHT31;56996;48.138;11.538;2023-02-28T04:58:39;-1.80;71.87
69731;SHT31;56996;48.138;11.538;2023-02-28T05:01:13;-1.75;71.71
69731;SHT31;56996;48.138;11.538;2023-02-28T05:03:47;-1.72;71.64
69731;SHT31;56996;48.138;11.538;2023-02-28T05:06:15;-1.69;71.64
69731;SHT31;56996;48.138;11.538;2023-02-28T05:08:43;-1.69;71.59
69731;SHT31;56996;48.138;11.538;2023-02-28T05:11:14;-1.66;71.64
69731;SHT31;56996;48.138;11.538;2023-02-28T05:13:46;-1.64;71.65
69731;SHT31;56996;48.138;11.538;2023-02-28T05:16:14;-1.61;71.48
69731;SHT31;56996;48.138;11.538;2023-02-28T05:18:41;-1.61;71.51
69731;SHT31;56996;48.138;11.538;2023-02-28T05:21:25;-1.58;71.41
69731;SHT31;56996;48.138;11.538;2023-02-28T05:23:55;-1.52;71.35
69731;SHT31;56996;48.138;11.538;2023-02-28T05:26:25;-1.49;71.32
69731;SHT31;56996;48.138;11.538;2023-02-28T05:28:54;-1.46;71.23
69731;SHT31;56996;48.138;11.538;2023-02-28T05:31:21;-1.37;71.17
69731;SHT31;56996;48.138;11.538;2023-02-28T05:33:49;-1.33;70.89
69731;SHT31;56996;48.138;11.538;2023-02-28T05:36:16;-1.32;70.79
69731;SHT31;56996;48.138;11.538;2023-02-28T05:38:42;-1.30;70.67
69731;SHT31;56996;48.138;11.538;2023-02-28T05:44:02;-1.35;70.80
69731;SHT31;56996;48.138;11.538;2023-02-28T05:46:29;-1.37;70.72
69731;SHT31;56996;48.138;11.538;2023-02-28T05:48:56;-1.34;70.71
69731;SHT31;56996;48.138;11.538;2023-02-28T05:51:25;-1.28;70.63
69731;SHT31;56996;48.138;11.538;2023-02-28T05:53:53;-1.26;70.43
69731;SHT31;56996;48.138;11.538;2023-02-28T05:56:20;-1.27;70.36
69731;SHT31;56996;48.138;11.538;2023-02-28T05:58:46;-1.27;70.30
69731;SHT31;56996;48.138;11.538;2023-02-28T06:01:33;-1.25;70.25
69731;SHT31;56996;48.138;11.538;2023-02-28T06:04:04;-1.23;70.19
69731;SHT31;56996;48.138;11.538;2023-02-28T06:06:39;-1.21;70.26
69731;SHT31;56996;48.138;11.538;2023-02-28T06:09:06;-1.21;70.09
69731;SHT31;56996;48.138;11.538;2023-02-28T06:11:33;-1.20;70.03
69731;SHT31;56996;48.138;11.538;2023-02-28T06:14:00;-1.16;70.01
69731;SHT31;56996;48.138;11.538;2023-02-28T06:16:28;-1.15;69.90
69731;SHT31;56996;48.138;11.538;2023-02-28T06:18:57;-1.14;69.68
69731;SHT31;56996;48.138;11.538;2023-02-28T06:21:26;-1.13;69.67
69731;SHT31;56996;48.138;11.538;2023-02-28T06:23:55;-1.09;69.58
69731;SHT31;56996;48.138;11.538;2023-02-28T06:26:23;-1.06;69.38
69731;SHT31;56996;48.138;11.538;2023-02-28T06:28:51;-1.04;69.20
69731;SHT31;56996;48.138;11.538;2023-02-28T06:31:18;-1.00;69.08
69731;SHT31;56996;48.138;11.538;2023-02-28T06:33:45;-1.00;69.09
69731;SHT31;56996;48.138;11.538;2023-02-28T06:36:13;-0.96;69.05
69731;SHT31;56996;48.138;11.538;2023-02-28T06:38:42;-0.94;69.05
69731;SHT31;56996;48.138;11.538;2023-02-28T06:41:10;-0.92;68.99
69731;SHT31;56996;48.138;11.538;2023-02-28T06:43:38;-0.90;68.79
69731;SHT31;56996;48.138;11.538;2023-02-28T06:46:10;-0.91;68.73
69731;SHT31;56996;48.138;11.538;2023-02-28T06:48:40;-0.88;68.74
69731;SHT31;56996;48.138;11.538;2023-02-28T06:51:15;-0.91;68.77
69731;SHT31;56996;48.138;11.538;2023-02-28T06:53:46;-0.95;68.92
69731;SHT31;56996;48.138;11.538;2023-02-28T06:56:13;-0.95;68.86
69731;SHT31;56996;48.138;11.538;2023-02-28T06:58:45;-0.90;68.88
69731;SHT31;56996;48.138;11.538;2023-02-28T07:01:14;-0.84;68.65
69731;SHT31;56996;48.138;11.538;2023-02-28T07:03:42;-0.86;68.56
69731;SHT31;56996;48.138;11.538;2023-02-28T07:06:09;-0.86;68.48
69731;SHT31;56996;48.138;11.538;2023-02-28T07:08:35;-0.91;68.62
69731;SHT31;56996;48.138;11.538;2023-02-28T07:11:02;-0.92;68.63
69731;SHT31;56996;48.138;11.538;2023-02-28T07:13:30;-0.90;68.73
69731;SHT31;56996;48.138;11.538;2023-02-28T07:15:57;-0.88;68.73
69731;SHT31;56996;48.138;11.538;2023-02-28T07:18:27;-0.86;68.65
69731;SHT31;56996;48.138;11.538;2023-02-28T07:20:54;-0.80;68.49
69731;SHT31;56996;48.138;11.538;2023-02-28T07:23:21;-0.81;68.44
69731;SHT31;56996;48.138;11.538;2023-02-28T07:25:49;-0.79;68.40
69731;SHT31;56996;48.138;11.538;2023-02-28T07:28:17;-0.76;68.20
69731;SHT31;56996;48.138;11.538;2023-02-28T07:30:43;-0.75;68.21
69731;SHT31;56996;48.138;11.538;2023-02-28T07:33:10;-0.76;68.29
69731;SHT31;56996;48.138;11.538;2023-02-28T07:35:37;-0.74;68.30
69731;SHT31;56996;48.138;11.538;2023-02-28T07:38:03;-0.70;68.26
69731;SHT31;56996;48.138;11.538;2023-02-28T07:40:31;-0.64;68.09
69731;SHT31;56996;48.138;11.538;2023-02-28T07:42:58;-0.54;67.97
69731;SHT31;56996;48.138;11.538;2023-02-28T07:45:27;-0.52;67.78
69731;SHT31;56996;48.138;11.538;2023-02-28T07:47:55;-0.58;67.82
69731;SHT31;56996;48.138;11.538;2023-02-28T07:50:22;-0.61;67.91
69731;SHT31;56996;48.138;11.538;2023-02-28T07:52:52;-0.62;67.95
69731;SHT31;56996;48.138;11.538;2023-02-28T07:55:19;-0.55;67.85
69731;SHT31;56996;48.138;11.538;2023-02-28T07:57:45;-0.50;67.80
69731;SHT31;56996;48.138;11.538;2023-02-28T08:00:12;-0.43;67.63
69731;SHT31;56996;48.138;11.538;2023-02-28T08:02:40;-0.36;67.46
69731;SHT31;56996;48.138;11.538;2023-02-28T08:05:07;-0.30;67.42
69731;SHT31;56996;48.138;11.538;2023-02-28T08:07:34;-0.23;67.33
69731;SHT31;56996;48.138;11.538;2023-02-28T08:10:01;-0.16;67.06
69731;SHT31;56996;48.138;11.538;2023-02-28T08:12:27;-0.12;66.76
69731;SHT31;56996;48.138;11.538;2023-02-28T08:14:54;-0.10;66.74
69731;SHT31;56996;48.138;11.538;2023-02-28T08:17:21;-0.13;66.79
69731;SHT31;56996;48.138;11.538;2023-02-28T08:19:47;-0.10;66.99
69731;SHT31;56996;48.138;11.538;2023-02-28T08:22:14;-0.02;66.79
69731;SHT31;56996;48.138;11.538;2023-02-28T08:24:41;-0.03;66.18
69731;SHT31;56996;48.138;11.538;2023-02-28T08:27:09;-0.05;66.19
69731;SHT31;56996;48.138;11.538;2023-02-28T08:29:39;-0.07;66.30
69731;SHT31;56996;48.138;11.538;2023-02-28T08:32:06;-0.03;66.33
69731;SHT31;56996;48.138;11.538;2023-02-28T08:34:48;0.02;66.13
69731;SHT31;56996;48.138;11.538;2023-02-28T08:37:15;0.08;66.00
69731;SHT31;56996;48.138;11.538;2023-02-28T08:39:42;0.16;65.73
69731;SHT31;56996;48.138;11.538;2023-02-28T08:42:09;0.23;65.43
69731;SHT31;56996;48.138;11.538;2023-02-28T08:44:35;0.16;65.17
69731;SHT31;56996;48.138;11.538;2023-02-28T08:47:02;0.06;65.37
69731;SHT31;56996;48.138;11.538;2023-02-28T08:49:29;0.02;65.63
69731;SHT31;56996;48.138;11.538;2023-02-28T08:51:55;0.06;65.83
69731;SHT31;56996;48.138;11.538;2023-02-28T08:54:23;0.11;65.60
69731;SHT31;56996;48.138;11.538;2023-02-28T08:56:51;0.04;65.57
69731;SHT31;56996;48.138;11.538;2023-02-28T08:59:17;0.02;65.89
69731;SHT31;56996;48.138;11.538;2023-02-28T09:01:44;0.11;66.39
69731;SHT31;56996;48.138;11.538;2023-02-28T09:04:11;0.21;65.94
69731;SHT31;56996;48.138;11.538;2023-02-28T09:06:42;0.24;65.52
69731;SHT31;56996;48.138;11.538;2023-02-28T09:09:10;0.29;65.51
69731;SHT31;56996;48.138;11.538;2023-02-28T09:11:37;0.31;65.09
69731;SHT31;56996;48.138;11.538;2023-02-28T09:14:04;0.16;65.18
69731;SHT31;56996;48.138;11.538;2023-02-28T09:16:31;0.12;65.20
69731;SHT31;56996;48.138;11.538;2023-02-28T09:18:59;0.13;65.26
69731;SHT31;56996;48.138;11.538;2023-02-28T09:21:26;0.16;65.21
69731;SHT31;56996;48.138;11.538;2023-02-28T09:23:54;0.20;65.26
69731;SHT31;56996;48.138;11.538;2023-02-28T09:26:22;0.26;65.29
69731;SHT31;56996;48.138;11.538;2023-02-28T09:28:51;0.34;65.15
69731;SHT31;56996;48.138;11.538;2023-02-28T09:31:20;0.53;65.19
69731;SHT31;56996;48.138;11.538;2023-02-28T09:33:51;0.67;64.78
69731;SHT31;56996;48.138;11.538;2023-02-28T09:36:21;0.81;64.31
69731;SHT31;56996;48.138;11.538;2023-02-28T09:39:06;0.84;63.99
69731;SHT31;56996;48.138;11.538;2023-02-28T09:41:37;0.87;63.95
69731;SHT31;56996;48.138;11.538;2023-02-28T09:44:17;0.94;63.71
69731;SHT31;56996;48.138;11.538;2023-02-28T09:47:15;0.92;62.86
69731;SHT31;56996;48.138;11.538;2023-02-28T09:49:52;0.84;63.32
69731;SHT31;56996;48.138;11.538;2023-02-28T09:52:21;0.85;63.16
69731;SHT31;56996;48.138;11.538;2023-02-28T09:54:59;0.95;63.33
69731;SHT31;56996;48.138;11.538;2023-02-28T09:58:08;0.98;63.01
69731;SHT31;56996;48.138;11.538;2023-02-28T10:00:59;1.01;62.94
69731;SHT31;56996;48.138;11.538;2023-02-28T10:06:21;1.02;63.62
69731;SHT31;56996;48.138;11.538;2023-02-28T10:11:32;1.14;62.59
69731;SHT31;56996;48.138;11.538;2023-02-28T10:14:05;1.23;62.35
69731;SHT31;56996;48.138;11.538;2023-02-28T10:16:49;1.27;61.84
69731;SHT31;56996;48.138;11.538;2023-02-28T10:19:24;1.37;61.82
69731;SHT31;56996;48.138;11.538;2023-02-28T10:21:59;1.49;61.36
69731;SHT31;56996;48.138;11.538;2023-02-28T10:24:39;1.60;61.14
69731;SHT31;56996;48.138;11.538;2023-02-28T10:27:16;1.78;61.03
69731;SHT31;56996;48.138;11.538;2023-02-28T10:29:52;2.01;60.75
69731;SHT31;56996;48.138;11.538;2023-02-28T10:32:23;2.13;60.09
69731;SHT31;56996;48.138;11.538;2023-02-28T10:35:15;2.15;59.48
69731;SHT31;56996;48.138;11.538;2023-02-28T10:37:49;2.03;59.23
69731;SHT31;56996;48.138;11.538;2023-02-28T10:40:32;1.98;59.85
69731;SHT31;56996;48.138;11.538;2023-02-28T10:45:32;2.17;59.20
69731;SHT31;56996;48.138;11.538;2023-02-28T10:48:22;2.28;59.43
69731;SHT31;56996;48.138;11.538;2023-02-28T10:50:57;2.42;59.23
69731;SHT31;56996;48.138;11.538;2023-02-28T10:53:32;2.47;58.46
69731;SHT31;56996;48.138;11.538;2023-02-28T10:56:24;2.38;58.01
69731;SHT31;56996;48.138;11.538;2023-02-28T10:58:55;2.56;58.39
69731;SHT31;56996;48.138;11.538;2023-02-28T11:01:36;2.88;57.78
69731;SHT31;56996;48.138;11.538;2023-02-28T11:04:31;3.07;57.19
69731;SHT31;56996;48.138;11.538;2023-02-28T11:07:22;3.29;56.91
69731;SHT31;56996;48.138;11.538;2023-02-28T11:09:56;3.58;56.85
69731;SHT31;56996;48.138;11.538;2023-02-28T11:12:35;3.79;56.09
69731;SHT31;56996;48.138;11.538;2023-02-28T11:17:53;4.07;54.67
69731;SHT31;56996;48.138;11.538;2023-02-28T11:20:30;4.06;54.06
69731;SHT31;56996;48.138;11.538;2023-02-28T11:23:00;3.82;53.90
69731;SHT31;56996;48.138;11.538;2023-02-28T11:25:32;3.70;54.66
69731;SHT31;56996;48.138;11.538;2023-02-28T11:28:22;3.72;54.47
69731;SHT31;56996;48.138;11.538;2023-02-28T11:30:59;3.77;54.58
69731;SHT31;56996;48.138;11.538;2023-02-28T11:33:45;3.86;54.58
69731;SHT31;56996;48.138;11.538;2023-02-28T11:38:52;3.92;53.85
69731;SHT31;56996;48.138;11.538;2023-02-28T11:41:45;3.74;54.00
69731;SHT31;56996;48.138;11.538;2023-02-28T11:50:40;3.77;54.85
69731;SHT31;56996;48.138;11.538;2023-02-28T12:01:57;4.11;54.72
69731;SHT31;56996;48.138;11.538;2023-02-28T12:07:46;4.05;54.36
69731;SHT31;56996;48.138;11.538;2023-02-28T12:10:29;4.05;54.41
69731;SHT31;56996;48.138;11.538;2023-02-28T12:19:29;4.13;53.84
69731;SHT31;56996;48.138;11.538;2023-02-28T12:22:22;4.24;53.51
69731;SHT31;56996;48.138;11.538;2023-02-28T12:25:08;4.34;53.58
69731;SHT31;56996;48.138;11.538;2023-02-28T12:28:06;4.46;52.87
69731;SHT31;56996;48.138;11.538;2023-02-28T12:30:39;4.50;52.61
69731;SHT31;56996;48.138;11.538;2023-02-28T12:33:20;4.63;52.58
69731;SHT31;56996;48.138;11.538;2023-02-28T12:35:55;4.75;52.04
69731;SHT31;56996;48.138;11.538;2023-02-28T12:38:38;4.81;52.48
69731;SHT31;56996;48.138;11.538;2023-02-28T12:47:05;5.06;51.11
69731;SHT31;56996;48.138;11.538;2023-02-28T12:49:49;5.03;51.32
69731;SHT31;56996;48.138;11.538;2023-02-28T13:01:26;4.92;51.19
69731;SHT31;56996;48.138;11.538;2023-02-28T13:07:22;4.93;51.17
69731;SHT31;56996;48.138;11.538;2023-02-28T13:10:14;5.03;51.17
69731;SHT31;56996;48.138;11.538;2023-02-28T13:12:52;5.16;50.99
69731;SHT31;56996;48.138;11.538;2023-02-28T13:15:22;5.14;50.42
69731;SHT31;56996;48.138;11.538;2023-02-28T13:18:00;5.14;50.48
69731;SHT31;56996;48.138;11.538;2023-02-28T13:20:34;5.20;50.15
69731;SHT31;56996;48.138;11.538;2023-02-28T13:23:03;5.23;50.02
69731;SHT31;56996;48.138;11.538;2023-02-28T13:26:09;5.26;49.66
69731;SHT31;56996;48.138;11.538;2023-02-28T13:31:15;5.55;49.96
69731;SHT31;56996;48.138;11.538;2023-02-28T13:38:49;5.60;49.84
69731;SHT31;56996;48.138;11.538;2023-02-28T13:49:18;5.50;49.93
69731;SHT31;56996;48.138;11.538;2023-02-28T13:51:52;5.66;49.85
69731;SHT31;56996;48.138;11.538;2023-02-28T13:57:53;5.82;49.10
69731;SHT31;56996;48.138;11.538;2023-02-28T14:03:28;5.83;49.21
69731;SHT31;56996;48.138;11.538;2023-02-28T14:11:55;5.76;49.02
69731;SHT31;56996;48.138;11.538;2023-02-28T14:17:03;5.48;49.47
69731;SHT31;56996;48.138;11.538;2023-02-28T14:19:36;5.43;49.74
69731;SHT31;56996;48.138;11.538;2023-02-28T14:25:18;5.52;49.29
69731;SHT31;56996;48.138;11.538;2023-02-28T14:35:19;5.45;49.41
69731;SHT31;56996;48.138;11.538;2023-02-28T14:38:07;5.47;49.56
69731;SHT31;56996;48.138;11.538;2023-02-28T14:40:45;5.40;49.55
69731;SHT31;56996;48.138;11.538;2023-02-28T14:43:24;5.31;49.72
69731;SHT31;56996;48.138;11.538;2023-02-28T14:45:58;5.27;49.81
69731;SHT31;56996;48.138;11.538;2023-02-28T14:48:30;5.28;49.81
69731;SHT31;56996;48.138;11.538;2023-02-28T14:50:58;5.22;49.68
69731;SHT31;56996;48.138;11.538;2023-02-28T14:53:30;5.25;50.00
69731;SHT31;56996;48.138;11.538;2023-02-28T14:56:03;5.29;49.78
69731;SHT31;56996;48.138;11.538;2023-02-28T14:58:31;5.20;50.04
69731;SHT31;56996;48.138;11.538;2023-02-28T15:01:01;5.10;50.10
69731;SHT31;56996;48.138;11.538;2023-02-28T15:03:34;4.97;50.27
69731;SHT31;56996;48.138;11.538;2023-02-28T15:06:06;4.87;50.52
69731;SHT31;56996;48.138;11.538;2023-02-28T15:08:44;4.78;50.76
69731;SHT31;56996;48.138;11.538;2023-02-28T15:11:16;4.76;50.84
69731;SHT31;56996;48.138;11.538;2023-02-28T15:13:52;4.70;50.99
69731;SHT31;56996;48.138;11.538;2023-02-28T15:16:29;4.66;51.16
69731;SHT31;56996;48.138;11.538;2023-02-28T15:19:28;4.57;51.34
69731;SHT31;56996;48.138;11.538;2023-02-28T15:22:02;4.52;51.65
69731;SHT31;56996;48.138;11.538;2023-02-28T15:27:07;4.44;52.09
69731;SHT31;56996;48.138;11.538;2023-02-28T15:29:44;4.41;52.38
69731;SHT31;56996;48.138;11.538;2023-02-28T15:34:55;4.32;52.97
69731;SHT31;56996;48.138;11.538;2023-02-28T15:42:57;4.23;53.22
69731;SHT31;56996;48.138;11.538;2023-02-28T15:48:43;4.25;53.39
69731;SHT31;56996;48.138;11.538;2023-02-28T15:51:31;4.22;53.59
69731;SHT31;56996;48.138;11.538;2023-02-28T15:54:05;4.23;53.64
69731;SHT31;56996;48.138;11.538;2023-02-28T15:56:44;4.22;53.65
69731;SHT31;56996;48.138;11.538;2023-02-28T15:59:17;4.26;53.72
69731;SHT31;56996;48.138;11.538;2023-02-28T16:04:36;4.27;53.76
69731;SHT31;56996;48.138;11.538;2023-02-28T16:07:04;4.28;53.82
69731;SHT31;56996;48.138;11.538;2023-02-28T16:09:38;4.24;54.05
69731;SHT31;56996;48.138;11.538;2023-02-28T16:12:05;4.17;54.18
69731;SHT31;56996;48.138;11.538;2023-02-28T16:14:33;4.14;54.37
69731;SHT31;56996;48.138;11.538;2023-02-28T16:17:07;4.10;54.49
69731;SHT31;56996;48.138;11.538;2023-02-28T16:19:49;4.03;54.69
69731;SHT31;56996;48.138;11.538;2023-02-28T16:22:16;4.05;54.83
69731;SHT31;56996;48.138;11.538;2023-02-28T16:24:43;4.04;54.75
69731;SHT31;56996;48.138;11.538;2023-02-28T16:27:25;3.99;54.79
69731;SHT31;56996;48.138;11.538;2023-02-28T16:30:03;3.92;54.96
69731;SHT31;56996;48.138;11.538;2023-02-28T16:32:34;3.88;55.19
69731;SHT31;56996;48.138;11.538;2023-02-28T16:35:03;3.86;55.44
69731;SHT31;56996;48.138;11.538;2023-02-28T16:37:35;3.82;55.42
69731;SHT31;56996;48.138;11.538;2023-02-28T16:40:03;3.81;55.51
69731;SHT31;56996;48.138;11.538;2023-02-28T16:42:31;3.80;55.50
69731;SHT31;56996;48.138;11.538;2023-02-28T16:44:58;3.76;55.66
69731;SHT31;56996;48.138;11.538;2023-02-28T16:47:24;3.74;55.70
69731;SHT31;56996;48.138;11.538;2023-02-28T16:49:53;3.68;55.80
69731;SHT31;56996;48.138;11.538;2023-02-28T16:52:19;3.66;55.98
69731;SHT31;56996;48.138;11.538;2023-02-28T16:54:46;3.64;55.95
69731;SHT31;56996;48.138;11.538;2023-02-28T16:57:20;3.61;56.03
69731;SHT31;56996;48.138;11.538;2023-02-28T16:59:49;3.60;56.26
69731;SHT31;56996;48.138;11.538;2023-02-28T17:02:19;3.61;56.46
69731;SHT31;56996;48.138;11.538;2023-02-28T17:04:46;3.61;56.53
69731;SHT31;56996;48.138;11.538;2023-02-28T17:07:14;3.59;56.64
69731;SHT31;56996;48.138;11.538;2023-02-28T17:09:44;3.55;56.72
69731;SHT31;56996;48.138;11.538;2023-02-28T17:12:12;3.52;56.82
69731;SHT31;56996;48.138;11.538;2023-02-28T17:14:39;3.45;56.96
69731;SHT31;56996;48.138;11.538;2023-02-28T17:17:06;3.44;57.05
69731;SHT31;56996;48.138;11.538;2023-02-28T17:19:33;3.40;57.14
69731;SHT31;56996;48.138;11.538;2023-02-28T17:22:02;3.36;57.30
69731;SHT31;56996;48.138;11.538;2023-02-28T17:24:29;3.34;57.45
69731;SHT31;56996;48.138;11.538;2023-02-28T17:26:57;3.31;57.66
69731;SHT31;56996;48.138;11.538;2023-02-28T17:29:23;3.30;57.57
69731;SHT31;56996;48.138;11.538;2023-02-28T17:31:51;3.29;57.68
69731;SHT31;56996;48.138;11.538;2023-02-28T17:34:18;3.29;57.85
69731;SHT31;56996;48.138;11.538;2023-02-28T17:36:46;3.28;57.94
69731;SHT31;56996;48.138;11.538;2023-02-28T17:39:16;3.28;57.84
69731;SHT31;56996;48.138;11.538;2023-02-28T17:41:51;3.27;57.89
69731;SHT31;56996;48.138;11.538;2023-02-28T17:44:19;3.28;57.91
69731;SHT31;56996;48.138;11.538;2023-02-28T17:46:47;3.32;58.04
69731;SHT31;56996;48.138;11.538;2023-02-28T17:49:16;3.37;58.03
69731;SHT31;56996;48.138;11.538;2023-02-28T17:51:44;3.40;57.97
69731;SHT31;56996;48.138;11.538;2023-02-28T17:54:11;3.39;58.07
69731;SHT31;56996;48.138;11.538;2023-02-28T17:56:40;3.36;58.16
69731;SHT31;56996;48.138;11.538;2023-02-28T17:59:09;3.35;58.18
69731;SHT31;56996;48.138;11.538;2023-02-28T18:01:38;3.36;58.22
69731;SHT31;56996;48.138;11.538;2023-02-28T18:04:05;3.37;58.16
69731;SHT31;56996;48.138;11.538;2023-02-28T18:06:37;3.35;58.20
69731;SHT31;56996;48.138;11.538;2023-02-28T18:09:14;3.34;58.23
69731;SHT31;56996;48.138;11.538;2023-02-28T18:11:49;3.35;58.37
69731;SHT31;56996;48.138;11.538;2023-02-28T18:14:18;3.34;58.34
69731;SHT31;56996;48.138;11.538;2023-02-28T18:16:49;3.34;58.45
69731;SHT31;56996;48.138;11.538;2023-02-28T18:19:16;3.34;58.56
69731;SHT31;56996;48.138;11.538;2023-02-28T18:21:47;3.37;58.58
69731;SHT31;56996;48.138;11.538;2023-02-28T18:24:16;3.41;58.53
69731;SHT31;56996;48.138;11.538;2023-02-28T18:26:45;3.45;58.41
69731;SHT31;56996;48.138;11.538;2023-02-28T18:29:16;3.47;58.40
69731;SHT31;56996;48.138;11.538;2023-02-28T18:31:49;3.47;58.41